createdAt,value
2019-01-06T00:00:48.707Z,0
2019-01-06T00:04:18.969Z,0
2019-01-06T00:09:17.632Z,0
2019-01-06T00:09:39.496Z,0
2019-01-06T00:12:40.811Z,0
2019-01-06T00:15:42.882Z,0
2019-01-06T00:20:39.740Z,0
2019-01-06T00:22:47.973Z,0
2019-01-06T00:24:41.240Z,0
2019-01-06T00:27:47.211Z,0
2019-01-06T00:30:45.715Z,0
2019-01-06T00:33:45.983Z,0
2019-01-06T00:37:45.727Z,0
2019-01-06T00:41:01.930Z,0
2019-01-06T00:42:41.101Z,0
2019-01-06T00:45:54.657Z,0
2019-01-06T00:50:42.044Z,0
2019-01-06T00:52:21.547Z,0
2019-01-06T00:56:40.336Z,0
2019-01-06T00:57:45.942Z,0
2019-01-06T01:00:42.096Z,0
2019-01-06T01:05:43.136Z,0
2019-01-06T01:06:48.387Z,0
2019-01-06T01:10:37.504Z,0
2019-01-06T01:14:45.619Z,0
2019-01-06T01:15:51.227Z,0
2019-01-06T01:19:03.565Z,0
2019-01-06T01:21:48.617Z,0
2019-01-06T01:25:02.159Z,0
2019-01-06T01:29:41.663Z,0
2019-01-06T01:32:40.977Z,0
2019-01-06T01:35:40.214Z,0
2019-01-06T01:38:44.536Z,0
2019-01-06T01:40:54.563Z,0
2019-01-06T01:42:55.736Z,0
2019-01-06T01:46:20.846Z,0
2019-01-06T01:49:20.821Z,0
2019-01-06T01:51:48.204Z,0
2019-01-06T01:56:39.686Z,0
2019-01-06T01:58:34.572Z,0
2019-01-06T02:00:46.385Z,0
2019-01-06T02:05:42.263Z,0
2019-01-06T02:06:46.047Z,0
2019-01-06T02:09:38.590Z,0
2019-01-06T02:13:14.968Z,0
2019-01-06T02:17:45.263Z,0
2019-01-06T02:18:47.819Z,0
2019-01-06T02:23:42.717Z,0
2019-01-06T02:26:36.998Z,0
2019-01-06T02:29:41.324Z,0
2019-01-06T02:31:20.315Z,0
2019-01-06T02:34:42.554Z,0
2019-01-06T02:38:44.281Z,0
2019-01-06T02:40:25.064Z,0
2019-01-06T02:42:57.213Z,0
2019-01-06T02:47:31.221Z,0
2019-01-06T02:49:01.584Z,0
2019-01-06T02:53:24.982Z,0
2019-01-06T02:55:39.115Z,0
2019-01-06T02:59:43.326Z,0
2019-01-06T03:00:55.149Z,0
2019-01-06T03:03:43.449Z,0
2019-01-06T03:09:01.485Z,0
2019-01-06T03:09:52.221Z,0
2019-01-06T03:14:49.689Z,0
2019-01-06T03:17:43.750Z,0
2019-01-06T03:18:55.034Z,0
2019-01-06T03:23:51.120Z,0
2019-01-06T03:24:44.681Z,0
2019-01-06T03:29:45.575Z,0
2019-01-06T03:31:59.022Z,0
2019-01-06T03:35:44.540Z,0
2019-01-06T03:37:54.337Z,0
2019-01-06T03:39:53.383Z,0
2019-01-06T03:43:12.613Z,0
2019-01-06T03:45:51.632Z,0
2019-01-06T03:49:29.336Z,0
2019-01-06T03:51:57.173Z,0
2019-01-06T03:56:09.681Z,0
2019-01-06T03:59:42.885Z,0
2019-01-06T04:01:38.643Z,0
2019-01-06T04:05:51.495Z,0
2019-01-06T04:07:36.488Z,0
2019-01-06T04:11:44.200Z,0
2019-01-06T04:13:46.777Z,0
2019-01-06T04:15:46.984Z,0
2019-01-06T04:18:44.513Z,0
2019-01-06T04:21:52.733Z,0
2019-01-06T04:26:40.750Z,0
2019-01-06T04:29:45.026Z,0
2019-01-06T04:32:44.149Z,0
2019-01-06T04:35:43.347Z,0
2019-01-06T04:37:01.806Z,0
2019-01-06T04:39:41.409Z,0
2019-01-06T04:43:14.551Z,0
2019-01-06T04:46:40.114Z,0
2019-01-06T04:49:18.915Z,0
2019-01-06T04:53:43.785Z,0
2019-01-06T04:54:42.976Z,0
2019-01-06T04:59:42.224Z,0
2019-01-06T05:01:39.292Z,0
2019-01-06T05:03:48.296Z,0
2019-01-06T05:06:59.864Z,0
2019-01-06T05:11:44.091Z,0
2019-01-06T05:12:43.940Z,0
2019-01-06T05:15:43.537Z,0
2019-01-06T05:19:52.172Z,0
2019-01-06T05:23:40.890Z,0
2019-01-06T05:26:39.953Z,0
2019-01-06T05:27:41.885Z,0
2019-01-06T05:32:43.541Z,0
2019-01-06T05:34:34.307Z,0
2019-01-06T05:38:41.835Z,0
2019-01-06T05:39:47.436Z,0
2019-01-06T05:44:40.234Z,0
2019-01-06T05:47:39.617Z,0
2019-01-06T05:50:43.895Z,0
2019-01-06T05:51:53.351Z,0
2019-01-06T05:55:38.853Z,0
2019-01-06T05:57:51.077Z,0
2019-01-06T06:01:51.479Z,0
2019-01-06T06:03:59.580Z,0
2019-01-06T06:06:52.508Z,0
2019-01-06T06:09:43.114Z,0
2019-01-06T06:12:48.090Z,0
2019-01-06T06:15:44.517Z,0
2019-01-06T06:19:19.539Z,0
2019-01-06T06:21:56.353Z,0
2019-01-06T06:26:44.499Z,0
2019-01-06T06:28:22.144Z,0
2019-01-06T06:30:50.007Z,0
2019-01-06T06:33:58.677Z,0
2019-01-06T06:36:41.191Z,0
2019-01-06T06:39:44.357Z,0
2019-01-06T06:42:41.169Z,0
2019-01-06T06:45:46.724Z,0
2019-01-06T06:49:36.812Z,0
2019-01-06T06:51:49.212Z,0
2019-01-06T06:54:41.887Z,0
2019-01-06T06:59:40.977Z,0
2019-01-06T07:02:39.962Z,1
2019-01-06T07:05:43.837Z,2
2019-01-06T07:08:05.423Z,3
2019-01-06T07:09:45.826Z,5
2019-01-06T07:14:20.859Z,7
2019-01-06T07:18:27.265Z,12
2019-01-06T07:18:40.836Z,19
2019-01-06T07:22:19.655Z,19
2019-01-06T07:25:38.106Z,31
2019-01-06T07:28:59.076Z,43
2019-01-06T07:30:50.283Z,57
2019-01-06T07:35:41.499Z,62
2019-01-06T07:37:03.908Z,64
2019-01-06T07:41:39.982Z,74
2019-01-06T07:43:34.669Z,99
2019-01-06T07:47:43.479Z,102
2019-01-06T07:49:00.319Z,133
2019-01-06T07:53:41.779Z,122
2019-01-06T07:56:41.061Z,134
2019-01-06T07:57:48.102Z,160
2019-01-06T08:00:47.438Z,174
2019-01-06T08:05:08.645Z,193
2019-01-06T08:07:40.272Z,297
2019-01-06T08:09:47.028Z,272
2019-01-06T08:12:43.648Z,378
2019-01-06T08:16:12.720Z,472
2019-01-06T08:19:17.180Z,567
2019-01-06T08:22:54.242Z,678
2019-01-06T08:25:37.425Z,744
2019-01-06T08:29:42.593Z,825
2019-01-06T08:30:52.319Z,977
2019-01-06T08:35:40.876Z,1147
2019-01-06T08:37:51.418Z,1425
2019-01-06T08:41:44.433Z,1638
2019-01-06T08:42:46.475Z,1489
2019-01-06T08:47:41.653Z,1378
2019-01-06T08:49:20.407Z,1611
2019-01-06T08:53:41.221Z,1324
2019-01-06T08:54:45.444Z,1574
2019-01-06T08:57:47.633Z,1562
2019-01-06T09:02:43.996Z,1604
2019-01-06T09:04:49.058Z,1379
2019-01-06T09:07:16.862Z,1772
2019-01-06T09:09:48.342Z,1948
2019-01-06T09:13:51.281Z,2055
2019-01-06T09:15:53.442Z,1914
2019-01-06T09:18:43.699Z,1910
2019-01-06T09:22:03.929Z,1984
2019-01-06T09:26:42.679Z,2202
2019-01-06T09:29:41.838Z,2221
2019-01-06T09:31:20.209Z,2006
2019-01-06T09:33:48.718Z,2064
2019-01-06T09:36:44.696Z,2472
2019-01-06T09:41:44.348Z,2603
2019-01-06T09:43:01.123Z,3025
2019-01-06T09:46:40.011Z,2888
2019-01-06T09:50:41.286Z,3308
2019-01-06T09:53:40.600Z,3512
2019-01-06T09:56:44.954Z,3917
2019-01-06T09:58:42.151Z,4056
2019-01-06T10:01:49.332Z,4354
2019-01-06T10:03:40.989Z,4596
2019-01-06T10:07:20.489Z,4799
2019-01-06T10:09:49.128Z,5198
2019-01-06T10:14:40.031Z,5618
2019-01-06T10:17:10.279Z,6062
2019-01-06T10:18:54.255Z,6921
2019-01-06T10:23:42.827Z,7056
2019-01-06T10:26:42.021Z,7550
2019-01-06T10:27:46.472Z,7948
2019-01-06T10:31:42.943Z,7864
2019-01-06T10:35:39.612Z,7529
2019-01-06T10:36:59.773Z,4718
2019-01-06T10:39:56.858Z,4362
2019-01-06T10:42:42.953Z,4093
2019-01-06T10:46:23.018Z,4670
2019-01-06T10:49:02.698Z,4888
2019-01-06T10:51:46.733Z,4984
2019-01-06T10:55:15.451Z,4211
2019-01-06T10:59:53.795Z,3964
2019-01-06T11:01:40.214Z,4187
2019-01-06T11:05:41.939Z,4540
2019-01-06T11:06:48.168Z,5012
2019-01-06T11:09:46.283Z,4070
2019-01-06T11:13:49.312Z,4280
2019-01-06T11:16:42.385Z,7251
2019-01-06T11:18:44.819Z,10406
2019-01-06T11:22:48.016Z,3828
2019-01-06T11:26:41.462Z,2532
2019-01-06T11:27:45.849Z,2328
2019-01-06T11:30:51.852Z,2954
2019-01-06T11:33:57.791Z,2934
2019-01-06T11:36:40.614Z,4710
2019-01-06T11:40:33.090Z,5238
2019-01-06T11:42:55.158Z,5798
2019-01-06T11:47:40.921Z,6638
2019-01-06T11:49:39.996Z,6022
2019-01-06T11:51:43.201Z,4987
2019-01-06T11:56:43.612Z,5748
2019-01-06T11:58:14.212Z,6163
2019-01-06T12:01:20.438Z,6318
2019-01-06T12:04:00.103Z,5939
2019-01-06T12:06:48.574Z,5703
2019-01-06T12:11:44.729Z,5743
2019-01-06T12:13:42.622Z,5122
2019-01-06T12:17:43.138Z,5562
2019-01-06T12:18:52.986Z,5093
2019-01-06T12:22:12.211Z,5277
2019-01-06T12:24:41.579Z,5842
2019-01-06T12:27:51.381Z,6253
2019-01-06T12:30:54.309Z,6070
2019-01-06T12:34:00.066Z,5795
2019-01-06T12:36:51.807Z,5490
2019-01-06T12:39:50.331Z,5665
2019-01-06T12:44:47.403Z,5448
2019-01-06T12:45:50.997Z,4700
2019-01-06T12:50:39.547Z,4367
2019-01-06T12:52:50.484Z,4212
2019-01-06T12:54:46.520Z,3994
2019-01-06T12:59:42.120Z,4048
2019-01-06T13:02:41.403Z,3620
2019-01-06T13:05:40.577Z,3283
2019-01-06T13:07:51.696Z,3032
2019-01-06T13:09:48.420Z,2825
2019-01-06T13:13:39.736Z,2832
2019-01-06T13:15:55.595Z,2666
2019-01-06T13:18:42.288Z,2726
2019-01-06T13:23:40.878Z,2975
2019-01-06T13:24:45.203Z,3467
2019-01-06T13:27:58.864Z,3541
2019-01-06T13:32:46.487Z,3532
2019-01-06T13:35:42.767Z,3180
2019-01-06T13:36:50.526Z,3016
2019-01-06T13:39:49.698Z,3057
2019-01-06T13:43:55.866Z,2963
2019-01-06T13:46:49.506Z,3077
2019-01-06T13:48:46.421Z,2835
2019-01-06T13:55:04.026Z,2887
2019-01-06T13:57:23.548Z,2718
2019-01-06T13:58:33.894Z,2505
2019-01-06T14:02:41.040Z,2413
2019-01-06T14:05:39.878Z,2128
2019-01-06T14:07:50.849Z,2317
2019-01-06T14:09:49.195Z,2334
2019-01-06T14:14:53.465Z,2382
2019-01-06T14:15:48.808Z,2268
2019-01-06T14:19:39.036Z,2104
2019-01-06T14:23:40.439Z,1838
2019-01-06T14:24:50.752Z,1658
2019-01-06T14:27:51.746Z,1601
2019-01-06T14:30:49.229Z,1335
2019-01-06T14:35:42.096Z,1270
2019-01-06T14:38:02.904Z,1399
2019-01-06T14:40:48.266Z,1517
2019-01-06T14:44:39.878Z,1252
2019-01-06T14:45:47.377Z,942
2019-01-06T14:48:54.081Z,1002
2019-01-06T14:51:56.796Z,814
2019-01-06T14:54:44.721Z,703
2019-01-06T14:58:46.658Z,640
2019-01-06T15:00:54.104Z,554
2019-01-06T15:03:46.236Z,556
2019-01-06T15:06:44.130Z,523
2019-01-06T15:09:47.230Z,397
2019-01-06T15:12:44.019Z,342
2019-01-06T15:15:51.928Z,284
2019-01-06T15:19:24.213Z,278
2019-01-06T15:23:44.814Z,280
2019-01-06T15:24:48.440Z,199
2019-01-06T15:28:01.989Z,155
2019-01-06T15:31:39.383Z,143
2019-01-06T15:34:53.818Z,146
2019-01-06T15:38:40.745Z,118
2019-01-06T15:39:47.472Z,99
2019-01-06T15:43:03.833Z,98
2019-01-06T15:46:15.905Z,67
2019-01-06T15:50:20.770Z,44
2019-01-06T15:53:41.774Z,22
2019-01-06T15:56:41.129Z,16
2019-01-06T15:59:01.908Z,10
2019-01-06T16:02:50.939Z,6
2019-01-06T16:03:47.784Z,3
2019-01-06T16:08:42.980Z,2
2019-01-06T16:09:58.975Z,1
2019-01-06T16:13:05.753Z,1
2019-01-06T16:15:55.427Z,1
2019-01-06T16:20:46.221Z,0
2019-01-06T16:23:46.363Z,0
2019-01-06T16:26:43.507Z,0
2019-01-06T16:29:42.721Z,0
2019-01-06T16:30:48.265Z,0
2019-01-06T16:35:59.842Z,0
2019-01-06T16:37:54.223Z,2
2019-01-06T16:39:53.908Z,2
2019-01-06T16:46:09.278Z,2
2019-01-06T16:50:06.171Z,2
2019-01-06T16:53:41.091Z,2
2019-01-06T16:55:56.830Z,2
2019-01-06T16:57:47.943Z,2
2019-01-06T17:01:03.932Z,2
2019-01-06T17:04:17.618Z,2
2019-01-06T17:08:42.333Z,2
2019-01-06T17:11:41.465Z,2
2019-01-06T17:13:01.449Z,2
2019-01-06T17:17:44.994Z,2
2019-01-06T17:18:47.255Z,2
2019-01-06T17:21:49.633Z,2
2019-01-06T17:26:42.650Z,2
2019-01-06T17:27:49.224Z,2
2019-01-06T17:30:50.606Z,2
2019-01-06T17:35:45.369Z,2
2019-01-06T17:38:44.507Z,2
2019-01-06T17:39:43.576Z,2
2019-01-06T17:44:42.837Z,2
2019-01-06T17:47:42.264Z,2
2019-01-06T17:48:41.847Z,2
2019-01-06T17:52:09.245Z,2
2019-01-06T17:54:46.451Z,2
2019-01-06T17:59:43.972Z,2
2019-01-06T18:01:19.725Z,2
2019-01-06T18:04:37.728Z,2
2019-01-06T18:06:53.652Z,2
2019-01-06T18:09:46.360Z,2
2019-01-06T18:13:31.554Z,2
2019-01-06T18:17:44.350Z,2
2019-01-06T18:18:47.876Z,2
2019-01-06T18:21:46.867Z,2
2019-01-06T18:26:36.735Z,2
2019-01-06T18:28:49.802Z,2
2019-01-06T18:32:41.669Z,2
2019-01-06T18:33:57.927Z,2
2019-01-06T18:37:20.021Z,2
2019-01-06T18:39:53.448Z,2
2019-01-06T18:44:42.644Z,2
2019-01-06T18:45:50.646Z,2
2019-01-06T18:48:47.079Z,2
2019-01-06T18:52:19.957Z,2
2019-01-06T18:56:44.083Z,2
2019-01-06T18:58:35.051Z,2
2019-01-06T19:03:49.698Z,2
2019-01-06T19:03:55.778Z,2
2019-01-06T19:06:44.892Z,2
2019-01-06T19:09:54.054Z,2
2019-01-06T19:13:02.717Z,2
2019-01-06T19:15:58.020Z,2
2019-01-06T19:19:16.883Z,2
2019-01-06T19:23:47.396Z,2
2019-01-06T19:24:51.774Z,2
2019-01-06T19:29:40.750Z,2
2019-01-06T19:32:39.814Z,2
2019-01-06T19:34:55.562Z,2
2019-01-06T19:36:46.888Z,2
2019-01-06T19:39:55.332Z,2
2019-01-06T19:44:41.834Z,2
2019-01-06T19:45:45.044Z,2
2019-01-06T19:48:42.070Z,2
2019-01-06T19:51:42.894Z,2
2019-01-06T19:56:43.683Z,2
2019-01-06T19:59:42.683Z,2
2019-01-06T20:01:35.754Z,2
2019-01-06T20:06:37.922Z,2
2019-01-06T20:07:01.968Z,2
2019-01-06T20:11:39.600Z,2
2019-01-06T20:14:43.919Z,2
2019-01-06T20:15:49.708Z,2
2019-01-06T20:20:48.682Z,2
2019-01-06T20:23:49.425Z,2
2019-01-06T20:26:46.052Z,2
2019-01-06T20:28:34.678Z,2
2019-01-06T20:32:44.321Z,2
2019-01-06T20:34:52.395Z,2
2019-01-06T20:37:13.194Z,2
2019-01-06T20:39:57.208Z,2
2019-01-06T20:42:59.160Z,2
2019-01-06T20:46:02.898Z,2
2019-01-06T20:48:57.746Z,2
2019-01-06T20:52:06.815Z,2
2019-01-06T20:56:17.478Z,2
2019-01-06T20:57:53.736Z,2
2019-01-06T21:01:13.903Z,2
2019-01-06T21:03:57.523Z,2
2019-01-06T21:09:05.476Z,2
2019-01-06T21:10:23.746Z,2
2019-01-06T21:14:43.695Z,2
2019-01-06T21:16:42.699Z,2
2019-01-06T21:19:15.268Z,2
2019-01-06T21:21:49.908Z,2
2019-01-06T21:24:46.178Z,2
2019-01-06T21:29:44.379Z,2
2019-01-06T21:30:51.144Z,2
2019-01-06T21:33:49.862Z,2
2019-01-06T21:36:46.716Z,2
2019-01-06T21:40:14.919Z,2
2019-01-06T21:42:45.960Z,2
2019-01-06T21:45:50.053Z,2
2019-01-06T21:48:43.322Z,2
2019-01-06T21:51:48.963Z,2
2019-01-06T21:54:49.264Z,2
2019-01-06T21:59:41.566Z,2
2019-01-06T22:00:42.011Z,2
2019-01-06T22:03:41.595Z,2
2019-01-06T22:08:06.998Z,2
2019-01-06T22:11:43.305Z,2
2019-01-06T22:13:15.904Z,2
2019-01-06T22:15:45.553Z,2
2019-01-06T22:20:40.901Z,2
2019-01-06T22:21:40.810Z,2
2019-01-06T22:25:04.477Z,2
2019-01-06T22:29:43.592Z,2
2019-01-06T22:32:42.775Z,2
2019-01-06T22:35:42.205Z,2
2019-01-06T22:38:41.180Z,0
2019-01-06T22:41:40.492Z,0
2019-01-06T22:42:50.196Z,0
2019-01-06T22:47:44.040Z,0
2019-01-06T22:49:41.354Z,0
2019-01-06T22:51:57.304Z,0
2019-01-06T22:56:41.898Z,0
2019-01-06T22:59:40.653Z,0
2019-01-06T23:02:45.647Z,0
2019-01-06T23:03:42.483Z,0
2019-01-06T23:08:43.534Z,0
2019-01-06T23:11:42.656Z,0
2019-01-06T23:14:42.501Z,0
2019-01-06T23:15:49.830Z,0
2019-01-06T23:18:44.536Z,0
2019-01-06T23:23:44.644Z,0
2019-01-06T23:26:43.761Z,0
2019-01-06T23:28:17.720Z,0
2019-01-06T23:32:42.599Z,0
2019-01-06T23:33:50.850Z,0
2019-01-06T23:38:40.751Z,0
2019-01-06T23:41:40.022Z,0
2019-01-06T23:42:48.016Z,0
2019-01-06T23:45:43.480Z,0
2019-01-06T23:48:40.547Z,0
2019-01-06T23:51:45.993Z,0
2019-01-06T23:54:48.200Z,0
2019-01-06T23:57:46.177Z,0
